KTVI/TVI METAR and TAF weather

Enter ICAO airport designator
Station Type Date Time Source
KTVI METAR 2020/07/10 18:35 UTC NOAA

KTVI 101835Z AUTO 29005KT 10SM SCT046 32/24 A2995 RMK AO2


Station Type Date Time Source
KTVI Decoded METAR 2020/07/10 18:35 UTC NOAA

Thomasville, GA, United States (KTVI) 30-54-06N 083-52-53W
Jul 10, 2020 - 02:35 PM EDT / 2020.07.10 1835 UTC
Wind: from the WNW (290 degrees) at 6 MPH (5 KT):0
Visibility: 10 mile(s):0
Sky conditions: partly cloudy
Temperature: 89 F (32 C)
Heat index: 98.4 F (36.9 C):1
Dew Point: 75 F (24 C)
Relative Humidity: 62%
Pressure (altimeter): 29.95 in. Hg (1014 hPa)
ob: KTVI 101835Z AUTO 29005KT 10SM SCT046 32/24 A2995 RMK AO2
cycle: 18

Station Type Date Time Source
KTVI TAF UTC NOAA

Error!

Example: see airport list